India Meteorological Department
Airport METARs
Date : 21-01-2018
Sl. # Airport METAR
1 Ahmedabad VAAH 201830Z 00000KT 4000 HZ NSC 19/13 Q1013 NOSIG=
2 Amritsar VIAR 201830Z 00000KT 2200 BR NSC 08/08 Q1014 NOSIG=
3 Aurangabad VAAU 201800Z 32002KT 6000 NSC 17/11 Q1015 NOSIG=
4 Bangalore VOBL 201830Z 10004KT 4000 BR NSC 15/14 Q1016 TEMPO 3000 BR=
5 Bhopal VABP 201800Z 02003KT 6000 NSC 15/11 Q1016 NOSIG=
6 Bhubaneswar VEBS 201830Z 00000KT 2000 HZ NSC 15/13 Q1013 NOSIG=
7 Chennai VOMM 201830Z 00000KT 5000 HZ SCT020 23/19 Q1013 NOSIG=
8 Coimbatore VOCB 201830Z 04005KT 4000 HZ NSC 21/10 Q1014 NOSIG=
9 Colombo VCBI 201810Z 03009KT 9000 NSC 24/18 Q1011 NOSIG=
10 Delhi VIDP 201830Z 00000KT 1500 R28/P2000 R29/P2000 BR NSC 11/08 Q1014 NOSIG=
11 Gauhati VEGT 201830Z NIL=
12 Gaya VEGY 201830Z NIL=
13 Goa VOGO 201730Z 04005KT 5000 BR FEW090 26/21 Q1011 NOSIG=
14 Hyderabad VOHS 201830Z 17005KT 6000 NSC 17/13 Q1015 NOSIG =
15 Indore VAID 201800Z 09006KT 5000 HZ NSC 18/11 Q1016 NOSIG=
16 Jaipur VIJP 201800Z VRB02KT 2000 FU NSC 15/00 Q1015 NOSIG=
17 Kochi VOCI 201830Z 00000KT 3500 BR FEW090 24/21 Q1010 NOSIG=
18 Kolkata VECC 201830Z 02003KT 2000 HZ NSC 16/13 Q1012 NOSIG=
19 Kozhikode VOCL 201830Z 00000KT 5000 HZ FEW015 25/21 Q1010 NOSIG=
20 Lucknow VILK 201830Z 00000KT 1500 R27/2000 BR NSC 12/09 Q1014 NOSIG=
21 Madurai VOMD 201800Z 08005KT 6000 FEW020 25/20 Q1013 NOSIG=
22 Mumbai VABB 201830Z 00000KT 3000 FU NSC 27/14 Q1012 NOSIG=
23 Nagpur VANP 201830Z 35003KT 4000 HZ NSC 19/10 Q1014 NOSIG=
24 Patna VEPT 201830Z NIL=
25 Raipur VERP 201800Z 14003KT 6000 NSC 18/09 Q1014 NOSIG=
26 Ranchi VERC 201800Z 00000KT 3000 HZ NSC 13/07 Q1016 NOSIG=
27 Trichy VOTR 201830Z 00000KT 3000 BR NSC 22/18 Q1012 NOSIG=
28 Trivandrum VOTV 201830Z 11003KT 3000 HZ FEW015 25/23 Q1010 TEMPO 2500 HZ=
29 Varanasi VEBN 201830Z 29002KT 1500 BR NSC 15/11 Q1013 NOSIG =
30 Vizag VOVZ 201800Z VRB02KT 4500 BR NSC 18/15 Q1014 NOSIG =
31 Male VRMM 201800Z 07013KT 9999 7000 FEW018 37/22 Q1011 NOSIG=
32 Gan SPECI VRMG 201752Z 02005KT 6000 TS FEW018 FEW019CB BKN260 28/24 Q1010 CB SSE TEMPO 7000 -TSRA=
33 Kathmandu VNKT 201830Z NIL=
34 Dhaka VGHS 201830Z 31003KT 3500 HZ NSC 15/11 Q1013 NOSIG=
35 Colombo VCBI 201810Z 03009KT 9000 NSC 24/18 Q1011 NOSIG=
36 Karachi OPKC 201825Z 28005KT 5000 HZ NSC 18/08 Q1015 NOSIG=
37 Lahore OPLA 201825Z 00000KT 4000 FU NSC 13/07 Q1014/A29.92=
38 Gwalior VIGR 201800Z 00000KT 3000 HZ NSC 12/09 Q1014=
39 Pune VAPO 201830Z VRB01KT 6000 NSC 19/07 Q1016 NOSIG=

 

--- End of List ---